KLAR/LAR METAR and TAF weather

Enter ICAO airport designator
Station Type Date Time Source
KLAR METAR 2021/03/04 23:53 UTC NOAA

KLAR 042353Z AUTO 33010KT 10SM FEW044 BKN055 OVC070 04/M03 A3013 RMK AO2 SLP217 60000 T00391033 10044 21006 53024


Station Type Date Time Source
KLAR Decoded METAR 2021/03/04 23:53 UTC NOAA

LARAMIE REGIONAL AIRPORT, WY, United States (KLAR) 41-19N 105-40W 2216M
Mar 04, 2021 - 06:53 PM EST / 2021.03.04 2353 UTC
Wind: from the NNW (330 degrees) at 12 MPH (10 KT):0
Visibility: 10 mile(s):0
Sky conditions: overcast
Temperature: 39.0 F (3.9 C)
Dew Point: 26.1 F (-3.3 C)
Relative Humidity: 59%
Pressure (altimeter): 30.13 in. Hg (1020 hPa)
Pressure tendency: 0.07 inches (2.4 hPa) higher than three hours ago
ob: KLAR 042353Z AUTO 33010KT 10SM FEW044 BKN055 OVC070 04/M03 A3013 RMK AO2 SLP217 60000 T00391033 10044 21006 53024
cycle: 0

Station Type Date Time Source
KLAR TAF 2021/03/04 22:18 UTC NOAA

TAF
AMD KLAR 042215Z 0422/0518 31008KT P6SM VCSH BKN060 OVC100
FM050000 01004KT P6SM OVC100
FM050800 20005KT P6SM SKC

Example: see airport list